sensor_id;sensor_type;location;lat;lon;timestamp;pressure;altitude;pressure_sealevel;temperature;humidity
24045;BME280;26257;49.442;8.422;2023-04-01T00:00:59;98937.50;;;12.69;100.00
24045;BME280;26257;49.442;8.422;2023-04-01T00:03:28;98943.66;;;12.69;100.00
24045;BME280;26257;49.442;8.422;2023-04-01T00:05:55;98922.72;;;12.57;100.00
24045;BME280;26257;49.442;8.422;2023-04-01T00:08:21;98919.38;;;12.49;100.00
24045;BME280;26257;49.442;8.422;2023-04-01T00:10:47;98926.56;;;12.44;100.00
24045;BME280;26257;49.442;8.422;2023-04-01T00:13:12;98929.19;;;12.44;100.00
24045;BME280;26257;49.442;8.422;2023-04-01T00:15:38;98918.63;;;12.44;100.00
24045;BME280;26257;49.442;8.422;2023-04-01T00:18:03;98924.56;;;12.55;100.00
24045;BME280;26257;49.442;8.422;2023-04-01T00:20:30;98912.41;;;12.45;100.00
24045;BME280;26257;49.442;8.422;2023-04-01T00:22:55;98927.84;;;12.66;100.00
24045;BME280;26257;49.442;8.422;2023-04-01T00:25:22;98929.91;;;12.52;100.00
24045;BME280;26257;49.442;8.422;2023-04-01T00:27:47;98932.78;;;12.42;100.00
24045;BME280;26257;49.442;8.422;2023-04-01T00:30:13;98922.13;;;12.46;100.00
24045;BME280;26257;49.442;8.422;2023-04-01T00:32:39;98921.06;;;12.53;100.00
24045;BME280;26257;49.442;8.422;2023-04-01T00:35:05;98916.50;;;12.60;100.00
24045;BME280;26257;49.442;8.422;2023-04-01T00:37:30;98921.25;;;12.46;100.00
24045;BME280;26257;49.442;8.422;2023-04-01T00:39:56;98921.25;;;12.44;100.00
24045;BME280;26257;49.442;8.422;2023-04-01T00:42:22;98919.19;;;12.58;100.00
24045;BME280;26257;49.442;8.422;2023-04-01T00:44:51;98916.66;;;12.54;100.00
24045;BME280;26257;49.442;8.422;2023-04-01T00:47:18;98912.34;;;12.48;100.00
24045;BME280;26257;49.442;8.422;2023-04-01T00:49:46;98921.06;;;12.53;100.00
24045;BME280;26257;49.442;8.422;2023-04-01T00:52:14;98909.00;;;12.40;100.00
24045;BME280;26257;49.442;8.422;2023-04-01T00:54:43;98910.41;;;12.56;100.00
24045;BME280;26257;49.442;8.422;2023-04-01T00:57:13;98911.53;;;12.45;100.00
24045;BME280;26257;49.442;8.422;2023-04-01T00:59:44;98899.25;;;12.42;100.00
24045;BME280;26257;49.442;8.422;2023-04-01T01:02:13;98915.06;;;12.45;100.00
24045;BME280;26257;49.442;8.422;2023-04-01T01:04:38;98906.22;;;12.46;100.00
24045;BME280;26257;49.442;8.422;2023-04-01T01:07:16;98931.31;;;12.28;100.00
24045;BME280;26257;49.442;8.422;2023-04-01T01:14:55;98916.34;;;12.26;100.00
24045;BME280;26257;49.442;8.422;2023-04-01T01:32:03;98906.84;;;12.17;100.00
24045;BME280;26257;49.442;8.422;2023-04-01T01:34:48;98912.09;;;12.19;100.00
24045;BME280;26257;49.442;8.422;2023-04-01T01:37:22;98913.69;;;12.27;100.00
24045;BME280;26257;49.442;8.422;2023-04-01T01:39:54;98909.41;;;12.22;100.00
24045;BME280;26257;49.442;8.422;2023-04-01T01:42:20;98901.31;;;12.28;100.00
24045;BME280;26257;49.442;8.422;2023-04-01T01:44:49;98896.06;;;12.26;100.00
24045;BME280;26257;49.442;8.422;2023-04-01T01:47:16;98898.19;;;12.49;100.00
24045;BME280;26257;49.442;8.422;2023-04-01T01:49:43;98900.06;;;12.44;100.00
24045;BME280;26257;49.442;8.422;2023-04-01T01:52:09;98900.47;;;12.26;100.00
24045;BME280;26257;49.442;8.422;2023-04-01T01:54:35;98888.78;;;12.36;100.00
24045;BME280;26257;49.442;8.422;2023-04-01T01:57:06;98902.16;;;12.30;100.00
24045;BME280;26257;49.442;8.422;2023-04-01T01:59:34;98898.66;;;12.28;100.00
24045;BME280;26257;49.442;8.422;2023-04-01T02:02:02;98893.31;;;12.31;100.00
24045;BME280;26257;49.442;8.422;2023-04-01T02:04:33;98900.34;;;12.32;100.00
24045;BME280;26257;49.442;8.422;2023-04-01T02:07:02;98903.53;;;12.48;100.00
24045;BME280;26257;49.442;8.422;2023-04-01T02:09:29;98908.41;;;12.26;100.00
24045;BME280;26257;49.442;8.422;2023-04-01T02:12:01;98895.78;;;12.38;100.00
24045;BME280;26257;49.442;8.422;2023-04-01T02:14:52;98894.06;;;12.37;100.00
24045;BME280;26257;49.442;8.422;2023-04-01T02:17:24;98899.31;;;12.39;100.00
24045;BME280;26257;49.442;8.422;2023-04-01T02:19:56;98909.13;;;12.34;100.00
24045;BME280;26257;49.442;8.422;2023-04-01T02:22:31;98903.50;;;12.49;100.00
24045;BME280;26257;49.442;8.422;2023-04-01T02:25:07;98905.94;;;12.58;100.00
24045;BME280;26257;49.442;8.422;2023-04-01T02:27:33;98906.59;;;12.68;100.00
24045;BME280;26257;49.442;8.422;2023-04-01T02:29:59;98909.50;;;12.57;100.00
24045;BME280;26257;49.442;8.422;2023-04-01T02:32:25;98908.22;;;12.35;100.00
24045;BME280;26257;49.442;8.422;2023-04-01T02:34:52;98902.53;;;12.52;100.00
24045;BME280;26257;49.442;8.422;2023-04-01T02:37:18;98891.50;;;12.33;100.00
24045;BME280;26257;49.442;8.422;2023-04-01T02:39:44;98904.16;;;12.19;100.00
24045;BME280;26257;49.442;8.422;2023-04-01T02:42:10;98893.50;;;12.22;100.00
24045;BME280;26257;49.442;8.422;2023-04-01T02:44:36;98904.34;;;12.10;100.00
24045;BME280;26257;49.442;8.422;2023-04-01T02:47:01;98908.91;;;12.03;100.00
24045;BME280;26257;49.442;8.422;2023-04-01T02:49:27;98897.66;;;11.94;100.00
24045;BME280;26257;49.442;8.422;2023-04-01T02:51:53;98897.66;;;11.92;100.00
24045;BME280;26257;49.442;8.422;2023-04-01T02:54:19;98911.03;;;11.86;100.00
24045;BME280;26257;49.442;8.422;2023-04-01T02:56:44;98897.75;;;11.88;100.00
24045;BME280;26257;49.442;8.422;2023-04-01T02:59:10;98901.28;;;11.87;100.00
24045;BME280;26257;49.442;8.422;2023-04-01T03:01:36;98897.81;;;11.85;100.00
24045;BME280;26257;49.442;8.422;2023-04-01T03:04:01;98900.16;;;12.00;100.00
24045;BME280;26257;49.442;8.422;2023-04-01T03:06:27;98896.19;;;11.77;100.00
24045;BME280;26257;49.442;8.422;2023-04-01T03:08:52;98905.38;;;12.03;100.00
24045;BME280;26257;49.442;8.422;2023-04-01T03:11:18;98906.31;;;12.02;100.00
24045;BME280;26257;49.442;8.422;2023-04-01T03:13:43;98919.53;;;12.00;100.00
24045;BME280;26257;49.442;8.422;2023-04-01T03:16:09;98911.44;;;12.08;100.00
24045;BME280;26257;49.442;8.422;2023-04-01T03:18:34;98910.78;;;11.97;100.00
24045;BME280;26257;49.442;8.422;2023-04-01T03:21:14;98904.50;;;12.04;100.00
24045;BME280;26257;49.442;8.422;2023-04-01T03:23:39;98909.94;;;11.95;100.00
24045;BME280;26257;49.442;8.422;2023-04-01T03:26:05;98916.31;;;11.85;100.00
24045;BME280;26257;49.442;8.422;2023-04-01T03:28:30;98914.16;;;12.05;100.00
24045;BME280;26257;49.442;8.422;2023-04-01T03:30:56;98913.91;;;12.17;100.00
24045;BME280;26257;49.442;8.422;2023-04-01T03:33:21;98901.75;;;12.08;100.00
24045;BME280;26257;49.442;8.422;2023-04-01T03:35:46;98918.44;;;12.12;100.00
24045;BME280;26257;49.442;8.422;2023-04-01T03:38:12;98911.59;;;12.00;100.00
24045;BME280;26257;49.442;8.422;2023-04-01T03:40:42;98917.56;;;12.11;100.00
24045;BME280;26257;49.442;8.422;2023-04-01T03:43:07;98916.75;;;12.08;100.00
24045;BME280;26257;49.442;8.422;2023-04-01T03:45:34;98914.94;;;12.10;100.00
24045;BME280;26257;49.442;8.422;2023-04-01T03:48:00;98910.34;;;12.19;100.00
24045;BME280;26257;49.442;8.422;2023-04-01T03:50:26;98919.44;;;12.05;100.00
24045;BME280;26257;49.442;8.422;2023-04-01T03:52:51;98911.66;;;11.99;100.00
24045;BME280;26257;49.442;8.422;2023-04-01T03:55:16;98918.44;;;12.12;100.00
24045;BME280;26257;49.442;8.422;2023-04-01T03:57:43;98904.44;;;12.07;100.00
24045;BME280;26257;49.442;8.422;2023-04-01T04:00:09;98906.75;;;12.20;100.00
24045;BME280;26257;49.442;8.422;2023-04-01T04:02:35;98904.56;;;11.99;100.00
24045;BME280;26257;49.442;8.422;2023-04-01T04:05:01;98905.22;;;12.12;100.00
24045;BME280;26257;49.442;8.422;2023-04-01T04:07:27;98893.56;;;12.19;100.00
24045;BME280;26257;49.442;8.422;2023-04-01T04:09:52;98892.69;;;12.18;100.00
24045;BME280;26257;49.442;8.422;2023-04-01T04:12:17;98883.00;;;12.19;100.00
24045;BME280;26257;49.442;8.422;2023-04-01T04:14:43;98904.03;;;12.25;100.00
24045;BME280;26257;49.442;8.422;2023-04-01T04:17:10;98886.69;;;12.12;100.00
24045;BME280;26257;49.442;8.422;2023-04-01T04:19:41;98896.28;;;12.17;100.00
24045;BME280;26257;49.442;8.422;2023-04-01T04:22:07;98890.16;;;12.14;100.00
24045;BME280;26257;49.442;8.422;2023-04-01T04:24:34;98879.69;;;12.08;100.00
24045;BME280;26257;49.442;8.422;2023-04-01T04:27:00;98885.69;;;12.17;100.00
24045;BME280;26257;49.442;8.422;2023-04-01T04:29:25;98884.19;;;12.04;100.00
24045;BME280;26257;49.442;8.422;2023-04-01T04:31:51;98874.34;;;12.11;100.00
24045;BME280;26257;49.442;8.422;2023-04-01T04:34:16;98879.34;;;12.23;100.00
24045;BME280;26257;49.442;8.422;2023-04-01T04:36:43;98875.38;;;12.04;100.00
24045;BME280;26257;49.442;8.422;2023-04-01T04:39:09;98869.16;;;12.05;100.00
24045;BME280;26257;49.442;8.422;2023-04-01T04:41:37;98881.44;;;12.09;100.00
24045;BME280;26257;49.442;8.422;2023-04-01T04:44:03;98878.72;;;12.12;100.00
24045;BME280;26257;49.442;8.422;2023-04-01T04:46:29;98884.44;;;11.92;100.00
24045;BME280;26257;49.442;8.422;2023-04-01T04:48:54;98872.13;;;11.90;100.00
24045;BME280;26257;49.442;8.422;2023-04-01T04:51:21;98894.06;;;11.95;100.00
24045;BME280;26257;49.442;8.422;2023-04-01T04:53:47;98881.63;;;12.00;100.00
24045;BME280;26257;49.442;8.422;2023-04-01T04:56:13;98885.41;;;11.88;100.00
24045;BME280;26257;49.442;8.422;2023-04-01T04:58:40;98903.34;;;11.72;100.00
24045;BME280;26257;49.442;8.422;2023-04-01T05:01:10;98891.47;;;11.93;100.00
24045;BME280;26257;49.442;8.422;2023-04-01T05:03:37;98885.31;;;11.93;100.00
24045;BME280;26257;49.442;8.422;2023-04-01T05:06:03;98903.09;;;11.85;100.00
24045;BME280;26257;49.442;8.422;2023-04-01T05:08:29;98898.09;;;12.14;100.00
24045;BME280;26257;49.442;8.422;2023-04-01T05:10:55;98900.84;;;12.08;100.00
24045;BME280;26257;49.442;8.422;2023-04-01T05:13:20;98897.81;;;11.85;100.00
24045;BME280;26257;49.442;8.422;2023-04-01T05:15:46;98906.97;;;11.65;100.00
24045;BME280;26257;49.442;8.422;2023-04-01T05:18:11;98901.44;;;11.81;100.00
24045;BME280;26257;49.442;8.422;2023-04-01T05:20:37;98896.59;;;12.01;100.00
24045;BME280;26257;49.442;8.422;2023-04-01T05:23:02;98896.16;;;11.79;100.00
24045;BME280;26257;49.442;8.422;2023-04-01T05:25:28;98893.50;;;11.81;100.00
24045;BME280;26257;49.442;8.422;2023-04-01T05:27:53;98890.28;;;12.08;100.00
24045;BME280;26257;49.442;8.422;2023-04-01T05:30:19;98898.06;;;11.71;100.00
24045;BME280;26257;49.442;8.422;2023-04-01T05:32:44;98904.84;;;11.86;100.00
24045;BME280;26257;49.442;8.422;2023-04-01T05:35:10;98899.47;;;11.90;100.00
24045;BME280;26257;49.442;8.422;2023-04-01T05:37:36;98898.88;;;12.19;100.00
24045;BME280;26257;49.442;8.422;2023-04-01T05:40:03;98890.72;;;11.87;100.00
24045;BME280;26257;49.442;8.422;2023-04-01T05:42:29;98888.34;;;11.73;100.00
24045;BME280;26257;49.442;8.422;2023-04-01T05:47:20;98881.97;;;11.83;100.00
24045;BME280;26257;49.442;8.422;2023-04-01T05:49:45;98872.28;;;11.82;100.00
24045;BME280;26257;49.442;8.422;2023-04-01T05:54:36;98885.72;;;11.71;100.00
24045;BME280;26257;49.442;8.422;2023-04-01T05:57:01;98882.91;;;11.81;100.00
24045;BME280;26257;49.442;8.422;2023-04-01T05:59:27;98880.94;;;11.90;100.00
24045;BME280;26257;49.442;8.422;2023-04-01T06:01:52;98870.63;;;11.76;100.00
24045;BME280;26257;49.442;8.422;2023-04-01T06:04:18;98883.75;;;11.83;100.00
24045;BME280;26257;49.442;8.422;2023-04-01T06:09:58;98873.44;;;11.67;100.00
24045;BME280;26257;49.442;8.422;2023-04-01T06:12:50;98868.22;;;11.63;100.00
24045;BME280;26257;49.442;8.422;2023-04-01T06:15:36;98881.59;;;11.57;100.00
24045;BME280;26257;49.442;8.422;2023-04-01T06:18:27;98878.00;;;11.59;100.00
24045;BME280;26257;49.442;8.422;2023-04-01T06:23:54;98886.00;;;11.56;100.00
24045;BME280;26257;49.442;8.422;2023-04-01T06:51:39;98882.81;;;11.85;100.00
24045;BME280;26257;49.442;8.422;2023-04-01T06:54:25;98882.06;;;11.78;100.00
24045;BME280;26257;49.442;8.422;2023-04-01T06:56:59;98871.47;;;11.78;100.00
24045;BME280;26257;49.442;8.422;2023-04-01T06:59:28;98865.34;;;11.76;100.00
24045;BME280;26257;49.442;8.422;2023-04-01T07:05:03;98890.66;;;11.90;100.00
24045;BME280;26257;49.442;8.422;2023-04-01T07:07:46;98884.03;;;12.12;100.00
24045;BME280;26257;49.442;8.422;2023-04-01T07:13:10;98881.63;;;12.00;100.00
24045;BME280;26257;49.442;8.422;2023-04-01T07:15:41;98879.75;;;12.05;100.00
24045;BME280;26257;49.442;8.422;2023-04-01T07:18:22;98872.19;;;11.87;100.00
24045;BME280;26257;49.442;8.422;2023-04-01T07:20:51;98881.94;;;11.85;100.00
24045;BME280;26257;49.442;8.422;2023-04-01T07:23:29;98880.06;;;11.90;100.00
